sensor_id;sensor_type;location;lat;lon;timestamp;P1;durP1;ratioP1;P2;durP2;ratioP2
11094;SDS011;5601;44.490;11.400;2022-09-09T00:01:54;6.53;;;2.73;;
11094;SDS011;5601;44.490;11.400;2022-09-09T00:04:28;9.00;;;2.70;;
11094;SDS011;5601;44.490;11.400;2022-09-09T00:06:59;5.30;;;2.20;;
11094;SDS011;5601;44.490;11.400;2022-09-09T00:09:33;4.17;;;2.50;;
11094;SDS011;5601;44.490;11.400;2022-09-09T00:12:08;8.10;;;2.63;;
11094;SDS011;5601;44.490;11.400;2022-09-09T00:14:42;6.47;;;2.47;;
11094;SDS011;5601;44.490;11.400;2022-09-09T00:17:17;6.50;;;2.10;;
11094;SDS011;5601;44.490;11.400;2022-09-09T00:19:53;9.73;;;2.20;;
11094;SDS011;5601;44.490;11.400;2022-09-09T00:22:27;7.87;;;2.40;;
11094;SDS011;5601;44.490;11.400;2022-09-09T00:25:01;7.13;;;2.37;;
11094;SDS011;5601;44.490;11.400;2022-09-09T00:27:37;8.37;;;2.90;;
11094;SDS011;5601;44.490;11.400;2022-09-09T00:30:13;5.40;;;2.53;;
11094;SDS011;5601;44.490;11.400;2022-09-09T00:32:45;5.67;;;2.30;;
11094;SDS011;5601;44.490;11.400;2022-09-09T00:35:17;13.53;;;2.80;;
11094;SDS011;5601;44.490;11.400;2022-09-09T00:37:50;5.93;;;2.60;;
11094;SDS011;5601;44.490;11.400;2022-09-09T00:40:26;8.07;;;2.80;;
11094;SDS011;5601;44.490;11.400;2022-09-09T00:43:10;3.77;;;2.30;;
11094;SDS011;5601;44.490;11.400;2022-09-09T00:48:46;7.20;;;2.80;;
11094;SDS011;5601;44.490;11.400;2022-09-09T00:51:23;6.20;;;2.83;;
11094;SDS011;5601;44.490;11.400;2022-09-09T00:56:52;5.97;;;2.70;;
11094;SDS011;5601;44.490;11.400;2022-09-09T00:59:32;7.47;;;3.10;;
11094;SDS011;5601;44.490;11.400;2022-09-09T01:02:07;5.47;;;2.47;;
11094;SDS011;5601;44.490;11.400;2022-09-09T01:04:47;6.47;;;3.07;;
11094;SDS011;5601;44.490;11.400;2022-09-09T01:07:15;4.93;;;2.60;;
11094;SDS011;5601;44.490;11.400;2022-09-09T01:09:54;8.30;;;3.30;;
11094;SDS011;5601;44.490;11.400;2022-09-09T01:12:26;7.33;;;3.50;;
11094;SDS011;5601;44.490;11.400;2022-09-09T01:15:01;11.57;;;3.63;;
11094;SDS011;5601;44.490;11.400;2022-09-09T01:17:44;5.90;;;3.00;;
11094;SDS011;5601;44.490;11.400;2022-09-09T01:20:17;10.90;;;3.87;;
11094;SDS011;5601;44.490;11.400;2022-09-09T01:22:52;7.10;;;3.07;;
11094;SDS011;5601;44.490;11.400;2022-09-09T01:28:42;10.47;;;3.57;;
11094;SDS011;5601;44.490;11.400;2022-09-09T01:31:11;5.63;;;3.70;;
11094;SDS011;5601;44.490;11.400;2022-09-09T01:33:43;6.63;;;4.00;;
11094;SDS011;5601;44.490;11.400;2022-09-09T01:36:12;7.47;;;4.03;;
11094;SDS011;5601;44.490;11.400;2022-09-09T01:38:44;7.50;;;4.03;;
11094;SDS011;5601;44.490;11.400;2022-09-09T01:41:13;8.23;;;4.10;;
11094;SDS011;5601;44.490;11.400;2022-09-09T01:43:40;6.13;;;4.00;;
11094;SDS011;5601;44.490;11.400;2022-09-09T01:46:08;9.80;;;4.53;;
11094;SDS011;5601;44.490;11.400;2022-09-09T01:48:37;12.30;;;5.83;;
11094;SDS011;5601;44.490;11.400;2022-09-09T01:51:05;8.93;;;5.37;;
11094;SDS011;5601;44.490;11.400;2022-09-09T01:53:34;9.10;;;4.43;;
11094;SDS011;5601;44.490;11.400;2022-09-09T01:56:04;10.07;;;5.10;;
11094;SDS011;5601;44.490;11.400;2022-09-09T01:58:43;8.90;;;4.27;;
11094;SDS011;5601;44.490;11.400;2022-09-09T02:01:22;7.90;;;4.70;;
11094;SDS011;5601;44.490;11.400;2022-09-09T02:03:56;10.33;;;5.40;;
11094;SDS011;5601;44.490;11.400;2022-09-09T02:06:26;7.27;;;4.53;;
11094;SDS011;5601;44.490;11.400;2022-09-09T02:08:57;9.20;;;4.63;;
11094;SDS011;5601;44.490;11.400;2022-09-09T02:11:28;8.37;;;5.20;;
11094;SDS011;5601;44.490;11.400;2022-09-09T02:13:59;7.00;;;4.60;;
11094;SDS011;5601;44.490;11.400;2022-09-09T02:16:30;12.33;;;4.87;;
11094;SDS011;5601;44.490;11.400;2022-09-09T02:19:01;8.03;;;4.87;;
11094;SDS011;5601;44.490;11.400;2022-09-09T02:21:34;7.90;;;4.80;;
11094;SDS011;5601;44.490;11.400;2022-09-09T02:24:03;9.93;;;5.27;;
11094;SDS011;5601;44.490;11.400;2022-09-09T02:26:34;10.53;;;5.30;;
11094;SDS011;5601;44.490;11.400;2022-09-09T02:29:07;9.43;;;5.20;;
11094;SDS011;5601;44.490;11.400;2022-09-09T02:31:38;11.43;;;5.37;;
11094;SDS011;5601;44.490;11.400;2022-09-09T02:34:08;10.07;;;5.03;;
11094;SDS011;5601;44.490;11.400;2022-09-09T02:36:37;10.67;;;4.77;;
11094;SDS011;5601;44.490;11.400;2022-09-09T02:39:07;8.17;;;4.87;;
11094;SDS011;5601;44.490;11.400;2022-09-09T02:41:37;11.43;;;4.80;;
11094;SDS011;5601;44.490;11.400;2022-09-09T02:44:10;10.50;;;5.00;;
11094;SDS011;5601;44.490;11.400;2022-09-09T02:46:45;9.97;;;5.13;;
11094;SDS011;5601;44.490;11.400;2022-09-09T02:49:27;10.30;;;5.10;;
11094;SDS011;5601;44.490;11.400;2022-09-09T02:52:00;6.90;;;4.63;;
11094;SDS011;5601;44.490;11.400;2022-09-09T02:54:31;16.03;;;5.80;;
11094;SDS011;5601;44.490;11.400;2022-09-09T02:57:01;10.27;;;6.03;;
11094;SDS011;5601;44.490;11.400;2022-09-09T02:59:35;11.03;;;6.17;;
11094;SDS011;5601;44.490;11.400;2022-09-09T03:02:03;10.50;;;5.00;;
11094;SDS011;5601;44.490;11.400;2022-09-09T03:04:31;12.23;;;5.27;;
11094;SDS011;5601;44.490;11.400;2022-09-09T03:06:58;8.10;;;5.20;;
11094;SDS011;5601;44.490;11.400;2022-09-09T03:09:26;9.90;;;4.93;;
11094;SDS011;5601;44.490;11.400;2022-09-09T03:11:53;11.33;;;5.43;;
11094;SDS011;5601;44.490;11.400;2022-09-09T03:14:21;10.50;;;5.53;;
11094;SDS011;5601;44.490;11.400;2022-09-09T03:16:52;8.93;;;5.60;;
11094;SDS011;5601;44.490;11.400;2022-09-09T03:19:19;9.77;;;5.00;;
11094;SDS011;5601;44.490;11.400;2022-09-09T03:21:47;8.93;;;5.20;;
11094;SDS011;5601;44.490;11.400;2022-09-09T03:24:15;8.10;;;4.80;;
11094;SDS011;5601;44.490;11.400;2022-09-09T03:26:42;9.53;;;4.83;;
11094;SDS011;5601;44.490;11.400;2022-09-09T03:29:10;12.27;;;5.83;;
11094;SDS011;5601;44.490;11.400;2022-09-09T03:31:38;14.50;;;4.93;;
11094;SDS011;5601;44.490;11.400;2022-09-09T03:34:07;10.97;;;5.17;;
11094;SDS011;5601;44.490;11.400;2022-09-09T03:36:35;11.00;;;5.37;;
11094;SDS011;5601;44.490;11.400;2022-09-09T03:39:02;11.30;;;5.00;;
11094;SDS011;5601;44.490;11.400;2022-09-09T03:41:30;11.17;;;5.63;;
11094;SDS011;5601;44.490;11.400;2022-09-09T03:43:57;10.77;;;5.30;;
11094;SDS011;5601;44.490;11.400;2022-09-09T03:46:25;8.20;;;4.87;;
11094;SDS011;5601;44.490;11.400;2022-09-09T03:48:52;12.00;;;4.80;;
11094;SDS011;5601;44.490;11.400;2022-09-09T03:51:22;6.87;;;4.30;;
11094;SDS011;5601;44.490;11.400;2022-09-09T03:53:49;8.03;;;4.30;;
11094;SDS011;5601;44.490;11.400;2022-09-09T03:56:16;9.43;;;4.73;;
11094;SDS011;5601;44.490;11.400;2022-09-09T03:58:46;6.33;;;4.70;;
11094;SDS011;5601;44.490;11.400;2022-09-09T04:01:14;10.97;;;4.07;;
11094;SDS011;5601;44.490;11.400;2022-09-09T04:03:43;10.63;;;4.20;;
11094;SDS011;5601;44.490;11.400;2022-09-09T04:06:11;6.83;;;4.50;;
11094;SDS011;5601;44.490;11.400;2022-09-09T04:08:41;13.37;;;4.73;;
11094;SDS011;5601;44.490;11.400;2022-09-09T04:11:09;9.53;;;4.57;;
11094;SDS011;5601;44.490;11.400;2022-09-09T04:13:37;10.37;;;5.00;;
11094;SDS011;5601;44.490;11.400;2022-09-09T04:16:05;10.20;;;4.37;;
11094;SDS011;5601;44.490;11.400;2022-09-09T04:18:33;9.27;;;4.80;;
11094;SDS011;5601;44.490;11.400;2022-09-09T04:21:01;7.83;;;4.13;;
11094;SDS011;5601;44.490;11.400;2022-09-09T04:23:30;11.40;;;4.53;;
11094;SDS011;5601;44.490;11.400;2022-09-09T04:26:00;9.30;;;4.30;;
11094;SDS011;5601;44.490;11.400;2022-09-09T04:28:29;11.20;;;4.73;;
11094;SDS011;5601;44.490;11.400;2022-09-09T04:31:03;8.57;;;4.40;;
11094;SDS011;5601;44.490;11.400;2022-09-09T04:33:31;7.50;;;4.33;;
11094;SDS011;5601;44.490;11.400;2022-09-09T04:35:58;11.60;;;4.00;;
11094;SDS011;5601;44.490;11.400;2022-09-09T04:38:26;9.07;;;4.27;;
11094;SDS011;5601;44.490;11.400;2022-09-09T04:40:54;8.17;;;3.87;;
11094;SDS011;5601;44.490;11.400;2022-09-09T04:43:23;5.07;;;3.73;;
11094;SDS011;5601;44.490;11.400;2022-09-09T04:45:56;7.47;;;4.27;;
11094;SDS011;5601;44.490;11.400;2022-09-09T04:48:24;8.60;;;4.40;;
11094;SDS011;5601;44.490;11.400;2022-09-09T04:50:55;15.83;;;4.97;;
11094;SDS011;5601;44.490;11.400;2022-09-09T04:53:24;11.17;;;6.10;;
11094;SDS011;5601;44.490;11.400;2022-09-09T04:55:52;12.80;;;4.20;;
11094;SDS011;5601;44.490;11.400;2022-09-09T04:58:20;11.53;;;4.50;;
11094;SDS011;5601;44.490;11.400;2022-09-09T05:00:51;8.00;;;4.13;;
11094;SDS011;5601;44.490;11.400;2022-09-09T05:03:19;9.37;;;4.13;;
11094;SDS011;5601;44.490;11.400;2022-09-09T05:05:46;11.47;;;4.00;;
11094;SDS011;5601;44.490;11.400;2022-09-09T05:08:14;9.47;;;3.93;;
11094;SDS011;5601;44.490;11.400;2022-09-09T05:10:41;13.87;;;3.90;;
11094;SDS011;5601;44.490;11.400;2022-09-09T05:13:09;11.40;;;4.17;;
11094;SDS011;5601;44.490;11.400;2022-09-09T05:15:36;9.20;;;4.90;;
11094;SDS011;5601;44.490;11.400;2022-09-09T05:18:06;8.80;;;4.40;;
11094;SDS011;5601;44.490;11.400;2022-09-09T05:20:34;9.60;;;4.60;;
11094;SDS011;5601;44.490;11.400;2022-09-09T05:23:01;11.50;;;6.20;;
11094;SDS011;5601;44.490;11.400;2022-09-09T05:25:29;10.30;;;5.20;;
11094;SDS011;5601;44.490;11.400;2022-09-09T05:27:57;15.17;;;5.27;;
11094;SDS011;5601;44.490;11.400;2022-09-09T05:30:26;13.33;;;6.13;;
11094;SDS011;5601;44.490;11.400;2022-09-09T05:32:55;13.47;;;4.83;;
11094;SDS011;5601;44.490;11.400;2022-09-09T05:35:24;11.37;;;4.50;;
11094;SDS011;5601;44.490;11.400;2022-09-09T05:37:51;6.77;;;4.27;;
11094;SDS011;5601;44.490;11.400;2022-09-09T05:40:18;8.23;;;3.97;;
11094;SDS011;5601;44.490;11.400;2022-09-09T05:42:46;8.63;;;4.00;;
11094;SDS011;5601;44.490;11.400;2022-09-09T05:45:14;10.73;;;4.07;;
11094;SDS011;5601;44.490;11.400;2022-09-09T05:47:42;8.67;;;3.80;;
11094;SDS011;5601;44.490;11.400;2022-09-09T05:50:10;15.50;;;3.70;;
11094;SDS011;5601;44.490;11.400;2022-09-09T05:52:40;9.20;;;3.90;;
11094;SDS011;5601;44.490;11.400;2022-09-09T05:55:08;7.57;;;3.70;;
11094;SDS011;5601;44.490;11.400;2022-09-09T05:57:37;10.87;;;3.37;;
11094;SDS011;5601;44.490;11.400;2022-09-09T06:00:05;11.53;;;3.60;;
11094;SDS011;5601;44.490;11.400;2022-09-09T06:02:32;26.80;;;5.20;;
11094;SDS011;5601;44.490;11.400;2022-09-09T06:05:02;8.50;;;3.70;;
11094;SDS011;5601;44.490;11.400;2022-09-09T06:07:29;6.57;;;3.20;;
11094;SDS011;5601;44.490;11.400;2022-09-09T06:09:59;12.23;;;2.87;;
11094;SDS011;5601;44.490;11.400;2022-09-09T06:12:26;15.03;;;3.97;;
11094;SDS011;5601;44.490;11.400;2022-09-09T06:14:54;8.17;;;3.33;;
11094;SDS011;5601;44.490;11.400;2022-09-09T06:17:22;11.20;;;6.30;;
11094;SDS011;5601;44.490;11.400;2022-09-09T06:19:49;15.70;;;3.97;;
11094;SDS011;5601;44.490;11.400;2022-09-09T06:22:18;14.80;;;3.37;;
11094;SDS011;5601;44.490;11.400;2022-09-09T06:24:45;6.07;;;2.50;;
11094;SDS011;5601;44.490;11.400;2022-09-09T06:27:14;12.18;;;2.75;;
11094;SDS011;5601;44.490;11.400;2022-09-09T06:29:42;10.32;;;2.50;;
11094;SDS011;5601;44.490;11.400;2022-09-09T06:32:09;5.07;;;2.15;;
11094;SDS011;5601;44.490;11.400;2022-09-09T06:34:37;6.30;;;2.30;;
11094;SDS011;5601;44.490;11.400;2022-09-09T06:37:05;6.50;;;2.38;;
11094;SDS011;5601;44.490;11.400;2022-09-09T06:39:33;7.95;;;2.28;;
11094;SDS011;5601;44.490;11.400;2022-09-09T06:42:01;8.10;;;2.58;;
11094;SDS011;5601;44.490;11.400;2022-09-09T06:44:30;9.18;;;2.75;;
11094;SDS011;5601;44.490;11.400;2022-09-09T06:46:59;8.65;;;2.22;;
11094;SDS011;5601;44.490;11.400;2022-09-09T06:49:26;8.32;;;2.63;;
11094;SDS011;5601;44.490;11.400;2022-09-09T06:51:54;9.05;;;2.40;;
11094;SDS011;5601;44.490;11.400;2022-09-09T06:54:21;5.10;;;1.70;;
11094;SDS011;5601;44.490;11.400;2022-09-09T06:56:49;4.60;;;2.03;;
11094;SDS011;5601;44.490;11.400;2022-09-09T06:59:16;8.40;;;2.38;;
11094;SDS011;5601;44.490;11.400;2022-09-09T07:01:44;5.65;;;2.13;;
11094;SDS011;5601;44.490;11.400;2022-09-09T07:04:12;6.82;;;2.08;;
11094;SDS011;5601;44.490;11.400;2022-09-09T07:06:41;6.22;;;2.20;;
11094;SDS011;5601;44.490;11.400;2022-09-09T07:09:11;6.90;;;2.17;;
11094;SDS011;5601;44.490;11.400;2022-09-09T07:11:42;9.95;;;2.33;;
11094;SDS011;5601;44.490;11.400;2022-09-09T07:14:10;9.40;;;2.20;;
11094;SDS011;5601;44.490;11.400;2022-09-09T07:16:39;7.18;;;2.13;;
11094;SDS011;5601;44.490;11.400;2022-09-09T07:19:08;7.35;;;2.00;;
11094;SDS011;5601;44.490;11.400;2022-09-09T07:21:36;6.60;;;1.70;;
11094;SDS011;5601;44.490;11.400;2022-09-09T07:24:05;9.43;;;2.22;;
11094;SDS011;5601;44.490;11.400;2022-09-09T07:26:35;6.68;;;1.98;;
11094;SDS011;5601;44.490;11.400;2022-09-09T07:29:03;8.07;;;2.40;;
11094;SDS011;5601;44.490;11.400;2022-09-09T07:31:30;19.23;;;3.38;;
11094;SDS011;5601;44.490;11.400;2022-09-09T07:34:00;3.88;;;1.70;;
11094;SDS011;5601;44.490;11.400;2022-09-09T07:36:29;5.57;;;2.05;;
11094;SDS011;5601;44.490;11.400;2022-09-09T07:38:58;6.90;;;1.70;;
11094;SDS011;5601;44.490;11.400;2022-09-09T07:41:27;7.78;;;1.92;;
11094;SDS011;5601;44.490;11.400;2022-09-09T07:43:57;6.45;;;1.60;;
11094;SDS011;5601;44.490;11.400;2022-09-09T07:46:24;7.80;;;1.85;;
11094;SDS011;5601;44.490;11.400;2022-09-09T07:48:53;4.35;;;2.10;;
11094;SDS011;5601;44.490;11.400;2022-09-09T07:51:22;6.47;;;2.03;;
11094;SDS011;5601;44.490;11.400;2022-09-09T07:53:53;4.22;;;1.67;;
11094;SDS011;5601;44.490;11.400;2022-09-09T07:56:22;11.38;;;2.67;;
11094;SDS011;5601;44.490;11.400;2022-09-09T07:58:51;3.63;;;1.65;;
11094;SDS011;5601;44.490;11.400;2022-09-09T08:01:22;9.90;;;2.40;;
11094;SDS011;5601;44.490;11.400;2022-09-09T08:03:52;7.40;;;2.05;;
11094;SDS011;5601;44.490;11.400;2022-09-09T08:06:21;3.53;;;1.23;;
11094;SDS011;5601;44.490;11.400;2022-09-09T08:08:50;7.55;;;1.30;;
11094;SDS011;5601;44.490;11.400;2022-09-09T08:11:19;5.72;;;2.78;;
11094;SDS011;5601;44.490;11.400;2022-09-09T08:13:49;3.58;;;1.40;;
11094;SDS011;5601;44.490;11.400;2022-09-09T08:16:19;5.03;;;1.60;;
11094;SDS011;5601;44.490;11.400;2022-09-09T08:18:48;8.45;;;1.42;;
11094;SDS011;5601;44.490;11.400;2022-09-09T08:21:17;4.47;;;1.30;;
11094;SDS011;5601;44.490;11.400;2022-09-09T08:23:46;7.18;;;1.50;;
11094;SDS011;5601;44.490;11.400;2022-09-09T08:26:14;2.47;;;1.10;;
11094;SDS011;5601;44.490;11.400;2022-09-09T08:28:46;6.13;;;1.00;;
11094;SDS011;5601;44.490;11.400;2022-09-09T08:31:15;10.43;;;2.13;;
11094;SDS011;5601;44.490;11.400;2022-09-09T08:33:44;5.65;;;1.30;;
11094;SDS011;5601;44.490;11.400;2022-09-09T08:36:12;17.38;;;2.47;;
11094;SDS011;5601;44.490;11.400;2022-09-09T08:38:41;56.63;;;5.55;;
11094;SDS011;5601;44.490;11.400;2022-09-09T08:41:13;4.90;;;1.10;;
11094;SDS011;5601;44.490;11.400;2022-09-09T08:44:00;4.70;;;1.30;;
11094;SDS011;5601;44.490;11.400;2022-09-09T08:46:33;5.40;;;1.30;;
11094;SDS011;5601;44.490;11.400;2022-09-09T08:49:13;4.60;;;1.00;;
11094;SDS011;5601;44.490;11.400;2022-09-09T08:51:52;3.40;;;1.23;;
11094;SDS011;5601;44.490;11.400;2022-09-09T08:54:23;2.80;;;0.88;;
11094;SDS011;5601;44.490;11.400;2022-09-09T08:56:53;2.10;;;1.20;;
11094;SDS011;5601;44.490;11.400;2022-09-09T08:59:24;3.58;;;1.20;;
11094;SDS011;5601;44.490;11.400;2022-09-09T09:01:54;3.70;;;1.20;;
11094;SDS011;5601;44.490;11.400;2022-09-09T09:04:41;4.75;;;0.90;;
11094;SDS011;5601;44.490;11.400;2022-09-09T09:07:26;3.10;;;0.77;;
11094;SDS011;5601;44.490;11.400;2022-09-09T09:10:02;3.75;;;1.00;;
11094;SDS011;5601;44.490;11.400;2022-09-09T09:12:38;3.22;;;0.93;;
11094;SDS011;5601;44.490;11.400;2022-09-09T09:15:14;5.28;;;1.20;;
11094;SDS011;5601;44.490;11.400;2022-09-09T09:17:46;2.58;;;0.90;;
11094;SDS011;5601;44.490;11.400;2022-09-09T09:20:15;2.85;;;0.88;;
11094;SDS011;5601;44.490;11.400;2022-09-09T09:22:51;5.82;;;1.30;;
11094;SDS011;5601;44.490;11.400;2022-09-09T09:25:21;7.00;;;1.58;;
11094;SDS011;5601;44.490;11.400;2022-09-09T09:27:52;4.70;;;0.88;;
11094;SDS011;5601;44.490;11.400;2022-09-09T09:30:34;2.80;;;0.95;;
11094;SDS011;5601;44.490;11.400;2022-09-09T09:33:08;5.97;;;1.70;;
11094;SDS011;5601;44.490;11.400;2022-09-09T09:35:42;5.93;;;1.80;;
11094;SDS011;5601;44.490;11.400;2022-09-09T09:38:12;8.45;;;2.10;;
11094;SDS011;5601;44.490;11.400;2022-09-09T09:40:48;9.95;;;2.38;;
11094;SDS011;5601;44.490;11.400;2022-09-09T09:43:21;4.55;;;1.80;;
11094;SDS011;5601;44.490;11.400;2022-09-09T09:45:54;8.80;;;2.33;;
11094;SDS011;5601;44.490;11.400;2022-09-09T09:48:23;5.05;;;1.92;;
11094;SDS011;5601;44.490;11.400;2022-09-09T09:50:51;6.65;;;2.72;;
11094;SDS011;5601;44.490;11.400;2022-09-09T09:53:21;6.82;;;2.40;;
11094;SDS011;5601;44.490;11.400;2022-09-09T09:55:53;3.05;;;1.65;;
11094;SDS011;5601;44.490;11.400;2022-09-09T09:58:23;5.88;;;1.77;;
11094;SDS011;5601;44.490;11.400;2022-09-09T10:00:54;7.65;;;2.13;;
11094;SDS011;5601;44.490;11.400;2022-09-09T10:03:22;8.43;;;2.30;;
11094;SDS011;5601;44.490;11.400;2022-09-09T10:05:51;4.35;;;1.88;;
11094;SDS011;5601;44.490;11.400;2022-09-09T10:08:19;10.95;;;2.55;;
11094;SDS011;5601;44.490;11.400;2022-09-09T10:10:59;10.27;;;2.30;;
11094;SDS011;5601;44.490;11.400;2022-09-09T10:13:36;8.68;;;1.42;;
11094;SDS011;5601;44.490;11.400;2022-09-09T10:16:23;5.13;;;1.77;;
11094;SDS011;5601;44.490;11.400;2022-09-09T10:19:00;6.78;;;1.83;;
11094;SDS011;5601;44.490;11.400;2022-09-09T10:21:40;5.18;;;1.88;;
11094;SDS011;5601;44.490;11.400;2022-09-09T10:24:28;5.25;;;1.40;;
11094;SDS011;5601;44.490;11.400;2022-09-09T10:27:12;12.45;;;1.67;;
11094;SDS011;5601;44.490;11.400;2022-09-09T10:29:56;5.57;;;1.55;;
11094;SDS011;5601;44.490;11.400;2022-09-09T10:32:41;9.18;;;1.58;;
11094;SDS011;5601;44.490;11.400;2022-09-09T10:35:19;5.88;;;1.48;;
11094;SDS011;5601;44.490;11.400;2022-09-09T10:38:16;3.22;;;1.50;;
11094;SDS011;5601;44.490;11.400;2022-09-09T10:40:47;3.20;;;1.30;;
11094;SDS011;5601;44.490;11.400;2022-09-09T10:43:38;2.70;;;1.20;;
11094;SDS011;5601;44.490;11.400;2022-09-09T10:46:20;4.45;;;1.85;;
11094;SDS011;5601;44.490;11.400;2022-09-09T10:49:02;4.68;;;1.67;;
11094;SDS011;5601;44.490;11.400;2022-09-09T10:51:43;5.50;;;1.80;;
11094;SDS011;5601;44.490;11.400;2022-09-09T10:54:24;2.45;;;1.42;;
11094;SDS011;5601;44.490;11.400;2022-09-09T10:57:00;3.58;;;1.50;;
11094;SDS011;5601;44.490;11.400;2022-09-09T10:59:32;4.15;;;1.60;;
11094;SDS011;5601;44.490;11.400;2022-09-09T11:02:06;2.47;;;1.13;;
11094;SDS011;5601;44.490;11.400;2022-09-09T11:04:48;5.88;;;1.45;;
11094;SDS011;5601;44.490;11.400;2022-09-09T11:07:22;5.63;;;2.67;;
11094;SDS011;5601;44.490;11.400;2022-09-09T11:09:57;3.95;;;1.73;;
11094;SDS011;5601;44.490;11.400;2022-09-09T11:12:29;3.08;;;1.20;;
11094;SDS011;5601;44.490;11.400;2022-09-09T14:35:24;3.67;;;1.45;;
11094;SDS011;5601;44.490;11.400;2022-09-09T14:37:52;4.82;;;1.98;;
11094;SDS011;5601;44.490;11.400;2022-09-09T14:40:20;4.47;;;1.65;;
11094;SDS011;5601;44.490;11.400;2022-09-09T14:42:48;4.88;;;1.70;;
11094;SDS011;5601;44.490;11.400;2022-09-09T14:45:15;3.58;;;1.45;;
11094;SDS011;5601;44.490;11.400;2022-09-09T14:47:43;4.07;;;1.70;;
11094;SDS011;5601;44.490;11.400;2022-09-09T14:50:10;5.53;;;2.00;;
11094;SDS011;5601;44.490;11.400;2022-09-09T14:52:40;3.20;;;1.65;;
11094;SDS011;5601;44.490;11.400;2022-09-09T14:55:08;7.70;;;2.00;;
11094;SDS011;5601;44.490;11.400;2022-09-09T14:57:36;4.55;;;1.90;;
11094;SDS011;5601;44.490;11.400;2022-09-09T15:00:05;4.65;;;1.90;;
11094;SDS011;5601;44.490;11.400;2022-09-09T15:02:34;3.40;;;1.42;;
11094;SDS011;5601;44.490;11.400;2022-09-09T15:05:01;6.45;;;1.88;;
11094;SDS011;5601;44.490;11.400;2022-09-09T15:07:29;9.27;;;2.17;;
11094;SDS011;5601;44.490;11.400;2022-09-09T15:10:00;24.08;;;6.80;;
11094;SDS011;5601;44.490;11.400;2022-09-09T15:12:28;15.95;;;3.88;;
11094;SDS011;5601;44.490;11.400;2022-09-09T15:14:55;9.23;;;3.45;;
11094;SDS011;5601;44.490;11.400;2022-09-09T15:17:24;10.77;;;3.15;;
11094;SDS011;5601;44.490;11.400;2022-09-09T15:19:52;5.53;;;2.03;;
11094;SDS011;5601;44.490;11.400;2022-09-09T15:22:20;4.97;;;2.10;;
11094;SDS011;5601;44.490;11.400;2022-09-09T15:24:49;5.28;;;2.05;;
11094;SDS011;5601;44.490;11.400;2022-09-09T15:27:18;6.20;;;2.30;;
11094;SDS011;5601;44.490;11.400;2022-09-09T15:29:45;6.82;;;2.50;;
11094;SDS011;5601;44.490;11.400;2022-09-09T15:32:14;6.15;;;2.65;;
11094;SDS011;5601;44.490;11.400;2022-09-09T15:34:41;4.93;;;2.00;;
11094;SDS011;5601;44.490;11.400;2022-09-09T15:37:09;3.10;;;2.08;;
11094;SDS011;5601;44.490;11.400;2022-09-09T15:39:38;4.72;;;1.60;;
11094;SDS011;5601;44.490;11.400;2022-09-09T15:42:07;4.60;;;2.03;;
11094;SDS011;5601;44.490;11.400;2022-09-09T15:44:40;4.55;;;1.40;;
11094;SDS011;5601;44.490;11.400;2022-09-09T15:47:09;2.75;;;1.25;;
11094;SDS011;5601;44.490;11.400;2022-09-09T15:49:38;3.35;;;1.40;;
11094;SDS011;5601;44.490;11.400;2022-09-09T15:52:06;4.15;;;1.58;;
11094;SDS011;5601;44.490;11.400;2022-09-09T15:54:36;5.00;;;1.20;;
11094;SDS011;5601;44.490;11.400;2022-09-09T15:57:05;4.32;;;1.50;;
11094;SDS011;5601;44.490;11.400;2022-09-09T15:59:34;4.35;;;1.40;;
11094;SDS011;5601;44.490;11.400;2022-09-09T16:02:03;2.67;;;1.30;;
11094;SDS011;5601;44.490;11.400;2022-09-09T16:04:31;14.65;;;10.68;;
11094;SDS011;5601;44.490;11.400;2022-09-09T16:07:01;4.18;;;1.50;;
11094;SDS011;5601;44.490;11.400;2022-09-09T16:09:30;3.45;;;1.73;;
11094;SDS011;5601;44.490;11.400;2022-09-09T16:11:57;4.25;;;2.25;;
11094;SDS011;5601;44.490;11.400;2022-09-09T16:14:26;2.10;;;1.42;;
11094;SDS011;5601;44.490;11.400;2022-09-09T16:16:54;2.95;;;1.75;;
11094;SDS011;5601;44.490;11.400;2022-09-09T16:19:23;3.63;;;1.90;;
11094;SDS011;5601;44.490;11.400;2022-09-09T16:21:51;3.60;;;1.80;;
11094;SDS011;5601;44.490;11.400;2022-09-09T16:24:19;3.95;;;2.25;;
11094;SDS011;5601;44.490;11.400;2022-09-09T16:26:47;7.97;;;1.70;;
11094;SDS011;5601;44.490;11.400;2022-09-09T16:29:18;5.18;;;1.80;;
11094;SDS011;5601;44.490;11.400;2022-09-09T16:31:46;3.35;;;1.60;;
11094;SDS011;5601;44.490;11.400;2022-09-09T16:34:15;3.00;;;1.83;;
11094;SDS011;5601;44.490;11.400;2022-09-09T16:36:45;4.32;;;2.10;;
11094;SDS011;5601;44.490;11.400;2022-09-09T16:39:14;5.40;;;1.90;;
11094;SDS011;5601;44.490;11.400;2022-09-09T16:41:43;7.00;;;2.10;;
11094;SDS011;5601;44.490;11.400;2022-09-09T16:44:13;3.22;;;1.80;;
11094;SDS011;5601;44.490;11.400;2022-09-09T16:46:43;6.38;;;2.10;;
11094;SDS011;5601;44.490;11.400;2022-09-09T16:49:13;5.05;;;2.20;;
11094;SDS011;5601;44.490;11.400;2022-09-09T16:51:42;3.43;;;2.20;;
11094;SDS011;5601;44.490;11.400;2022-09-09T16:54:13;6.60;;;2.60;;
11094;SDS011;5601;44.490;11.400;2022-09-09T16:56:42;5.10;;;2.47;;
11094;SDS011;5601;44.490;11.400;2022-09-09T16:59:12;5.13;;;2.30;;
11094;SDS011;5601;44.490;11.400;2022-09-09T17:01:41;8.40;;;2.40;;
11094;SDS011;5601;44.490;11.400;2022-09-09T17:04:11;3.58;;;2.20;;
11094;SDS011;5601;44.490;11.400;2022-09-09T17:06:41;5.87;;;2.30;;
11094;SDS011;5601;44.490;11.400;2022-09-09T17:09:13;6.97;;;3.23;;
11094;SDS011;5601;44.490;11.400;2022-09-09T17:11:41;6.33;;;4.20;;
11094;SDS011;5601;44.490;11.400;2022-09-09T17:14:11;4.97;;;2.53;;
11094;SDS011;5601;44.490;11.400;2022-09-09T17:16:42;8.07;;;3.03;;
11094;SDS011;5601;44.490;11.400;2022-09-09T17:19:09;6.55;;;2.70;;
11094;SDS011;5601;44.490;11.400;2022-09-09T17:21:37;9.63;;;2.83;;
11094;SDS011;5601;44.490;11.400;2022-09-09T17:24:05;5.80;;;2.70;;
11094;SDS011;5601;44.490;11.400;2022-09-09T17:26:35;3.73;;;2.67;;
11094;SDS011;5601;44.490;11.400;2022-09-09T17:29:03;7.17;;;2.80;;
11094;SDS011;5601;44.490;11.400;2022-09-09T17:31:31;6.37;;;3.00;;
11094;SDS011;5601;44.490;11.400;2022-09-09T17:33:59;7.60;;;3.00;;
11094;SDS011;5601;44.490;11.400;2022-09-09T17:36:27;7.00;;;3.50;;
11094;SDS011;5601;44.490;11.400;2022-09-09T17:38:57;5.37;;;2.97;;
11094;SDS011;5601;44.490;11.400;2022-09-09T17:41:26;8.70;;;3.20;;
11094;SDS011;5601;44.490;11.400;2022-09-09T17:43:56;5.50;;;3.50;;
11094;SDS011;5601;44.490;11.400;2022-09-09T17:46:24;8.13;;;3.80;;
11094;SDS011;5601;44.490;11.400;2022-09-09T17:48:54;8.57;;;4.10;;
11094;SDS011;5601;44.490;11.400;2022-09-09T17:51:24;8.10;;;3.30;;
11094;SDS011;5601;44.490;11.400;2022-09-09T17:53:55;11.43;;;3.70;;
11094;SDS011;5601;44.490;11.400;2022-09-09T17:56:25;6.27;;;3.43;;
11094;SDS011;5601;44.490;11.400;2022-09-09T17:58:57;7.33;;;3.67;;
11094;SDS011;5601;44.490;11.400;2022-09-09T18:01:25;8.90;;;3.87;;
11094;SDS011;5601;44.490;11.400;2022-09-09T18:03:54;11.40;;;4.10;;
11094;SDS011;5601;44.490;11.400;2022-09-09T18:06:23;10.90;;;6.17;;
11094;SDS011;5601;44.490;11.400;2022-09-09T18:08:54;8.97;;;3.30;;
11094;SDS011;5601;44.490;11.400;2022-09-09T18:11:23;10.55;;;3.60;;
11094;SDS011;5601;44.490;11.400;2022-09-09T18:13:53;9.10;;;3.20;;
11094;SDS011;5601;44.490;11.400;2022-09-09T18:16:23;5.63;;;3.13;;
11094;SDS011;5601;44.490;11.400;2022-09-09T18:18:53;6.07;;;3.33;;
11094;SDS011;5601;44.490;11.400;2022-09-09T18:21:23;8.40;;;3.40;;
11094;SDS011;5601;44.490;11.400;2022-09-09T18:23:52;7.23;;;3.70;;
11094;SDS011;5601;44.490;11.400;2022-09-09T18:26:19;8.27;;;3.67;;
11094;SDS011;5601;44.490;11.400;2022-09-09T18:28:49;8.17;;;3.50;;
11094;SDS011;5601;44.490;11.400;2022-09-09T18:31:20;7.03;;;3.87;;
11094;SDS011;5601;44.490;11.400;2022-09-09T18:33:50;4.93;;;3.27;;
11094;SDS011;5601;44.490;11.400;2022-09-09T18:36:20;10.43;;;4.20;;